Regional Weather

 

KCRX - Corinth, Mississippi, USA
Distance from station: SW 29mi, 47km
Updated: Fri, 24-May-2019 12:15am CDT
Clear
Clear
 Wind from calm
Wind: Calm
Temperature: 70°F , 21°C
Dew Point: 68°F , 20°C
Humidity: 94%
Barometer: 30.11 inHg , 1019.6 hPa
Clouds: Clear
Visibility: 10 miles , 16 km
2019/05/24 05:15 KCRX 240515Z AUTO 00000KT 10SM CLR 21/20 A3011 RMK AO2
KMKL - Jackson, Tennessee, USA
Distance from station: NW 46mi, 73km
Updated: Thu, 23-May-2019 11:53pm CDT
Clear
Clear
 Wind from calm
Wind: Calm
Temperature: 68°F , 20°C
Dew Point: 66°F , 19°C
Humidity: 94%
Barometer: 30.11 inHg , 1019.6 hPa
Clouds: Clear
Visibility: 10 miles , 16 km
2019/05/24 04:53 KMKL 240453Z AUTO 00000KT 10SM CLR 20/19 A3011 RMK AO2 SLP191 T02000194
 
KMSL - Muscle Shoal, Alabama, USA
Distance from station: SE 49mi, 79km
Updated: Thu, 23-May-2019 11:53pm CDT
Clear
Clear
 Wind from calm
Wind: Calm
Temperature: 72°F , 22°C
Dew Point: 66°F , 19°C
Humidity: 83%
Barometer: 30.14 inHg , 1020.7 hPa
Clouds: Clear
Visibility: 10 miles , 16 km
2019/05/24 04:53 KMSL 240453Z AUTO 00000KT 10SM CLR 22/19 A3014 RMK AO2 SLP200 T02220189
KTUP - Tupelo, Mississippi, USA
Distance from station: SSW 72mi, 117km
Updated: Thu, 23-May-2019 11:53pm CDT
Clear
Clear
 Wind from calm
Wind: Calm
Temperature: 75°F , 24°C
Dew Point: 66°F , 19°C
Humidity: 74%
Barometer: 30.10 inHg , 1019.3 hPa
Clouds: Clear
Visibility: 10 miles , 16 km
2019/05/24 04:53 KTUP 240453Z AUTO 00000KT 10SM CLR 24/19 A3010 RMK AO2 SLP190 T02390194 $
 
KHSV - Huntsville, Alabama, USA
Distance from station: ESE 92mi, 148km
Updated: Thu, 23-May-2019 11:53pm CDT
Clear
Clear
 Wind from ESE
Wind: ESE 3 mph , 6 km/h
Temperature: 75°F , 24°C
Dew Point: 70°F , 21°C
Humidity: 83%
Barometer: 30.15 inHg , 1021 hPa
Clouds: Clear
Visibility: 10 miles , 16 km
2019/05/24 04:53 KHSV 240453Z 12003KT 10SM CLR 24/21 A3015 RMK AO2 SLP200 T02390211
KBNA - Nashville, TN, USA
Distance from station: NE 97mi, 157km
Updated: Thu, 23-May-2019 11:53pm CDT
Clear
Clear
 Wind from S
Wind: S 7 mph , 11 km/h
Temperature: 72°F , 22°C
Dew Point: 63°F , 17°C
Humidity: 73%
Barometer: 30.14 inHg , 1020.7 hPa
Clouds: Clear
Visibility: 10 miles , 16 km
2019/05/24 04:53 KBNA 240453Z 18006KT 10SM CLR 22/17 A3014 RMK AO2 SLP199 T02170172
 
KMEM - Memphis, Tennessee, USA
Distance from station: W 99mi, 159km
Updated: Thu, 23-May-2019 11:54pm CDT
Clear
Clear
 Wind from S
Wind: S 7 mph , 11 km/h
Temperature: 75°F , 24°C
Dew Point: 64°F , 18°C
Humidity: 69%
Barometer: 30.08 inHg , 1018.6 hPa
Clouds: Clear
Visibility: 10 miles , 16 km
2019/05/24 04:54 KMEM 240454Z 18006KT 10SM CLR 24/18 A3008 RMK AO2 SLP183 T02440183 $
KCKV - Clarksville, TN, USA
Distance from station: NNE 99mi, 159km
Updated: Thu, 23-May-2019 11:52pm CDT
Clear
Clear
 Wind from calm
Wind: Calm
Temperature: 70°F , 21°C
Dew Point: 66°F , 19°C
Humidity: 88%
Barometer: 30.12 inHg , 1020 hPa
Clouds: Clear
Visibility: 10 miles , 16 km
2019/05/24 04:52 KCKV 240452Z AUTO 00000KT 10SM CLR 21/19 A3012 RMK AO2 SLP192 T02110189
 
KCHA - Chattanooga, TN, USA
Distance from station: E 165mi, 265km
Updated: Thu, 23-May-2019 11:53pm CDT
Clear
Clear
 Wind from calm
Wind: Calm
Temperature: 73°F , 23°C
Dew Point: 70°F , 21°C
Humidity: 89%
Barometer: 30.16 inHg , 1021.3 hPa
Clouds: Clear
Visibility: 10 miles , 16 km
2019/05/24 04:53 KCHA 240453Z 00000KT 10SM CLR 23/21 A3016 RMK AO2 SLP206 T02330206 403330211 $
KTYS - Knoxville, TN, USA
Distance from station: E 234mi, 377km
Updated: Thu, 23-May-2019 11:53pm CDT
Partly cloudy
Partly cloudy
 Wind from calm
Wind: Calm
Temperature: 73°F , 23°C
Dew Point: 66°F , 19°C
Humidity: 78%
Barometer: 30.16 inHg , 1021.3 hPa
Clouds: Partly cloudy
Visibility: 10 miles , 16 km
Cloud details: Partly cloudy 25000 ft
2019/05/24 04:53 KTYS 240453Z 00000KT 10SM SCT250 23/19 A3016 RMK AO2 SLP199 T02280189 403110200

Refresh Page for latest data.